Latest Weather Observations for Canterbury

IDN60801

Issued at 4:05 pm EDT Monday 24 November 2014 (issued every 30 minutes, with the page automatically refreshed every 10 minutes)

About weather observations | Map of weather stations | Latest weather observations for NSW | Other Formats
Station Details ID: 066194 Name: CANTERBURY RACECOURSE AWS Lat: -33.91 Lon: 151.11 Height: 3.0 m
Data from the previous 72 hours. | See also: Recent months at Canterbury
Date/Time
EDT
Temp
°C
App
Temp
°C
Dew
Point
Rel
Hum
%
Delta-T
°C
Wind Press
QNH
hPa
Press
MSL
hPa
Rain
since 9 am
mm
Dir
 
Spd
km/h
Gust
km/h
Spd
kts
Gust
kts
24/04:00pm 22.8 24.4 19.2 80 2.3 NNW 9 15 5 8 - - 2.4
24/03:53pm 23.5 25.0 18.8 75 3.0 WNW 9 15 5 8 - - 0.4
24/03:30pm 24.0 24.0 18.2 70 3.6 E 15 20 8 11 - - 0.0
24/03:00pm 25.9 25.0 18.1 62 4.9 ESE 20 30 11 16 - - 0.0
24/02:30pm 28.9 27.7 17.4 49 7.3 E 20 30 11 16 - - 0.0
24/02:00pm 29.9 28.7 17.4 47 7.9 E 20 24 11 13 - - 0.0
24/01:30pm 29.3 27.8 17.8 50 7.3 SE 22 28 12 15 - - 0.0
24/01:00pm 30.2 31.2 18.6 49 7.5 SE 11 17 6 9 - - 0.0
24/12:30pm 29.1 30.5 17.9 50 7.1 ESE 7 13 4 7 - - 0.0
24/12:00pm 28.5 30.6 18.9 56 6.2 ESE 6 17 3 9 - - 0.0
24/11:30am 27.3 28.7 17.8 56 6.0 ESE 7 9 4 5 - - 0.0
24/11:00am 26.4 28.8 18.8 63 4.9 SSE 4 9 2 5 - - 0.0
24/10:30am 25.6 27.7 18.0 63 4.8 S 4 11 2 6 - - 0.0
24/10:00am 24.5 26.6 18.0 67 4.1 SSE 4 7 2 4 - - 0.0
24/09:30am 24.1 25.7 18.3 70 3.7 SSE 7 15 4 8 - - 0.0
24/09:00am 23.2 24.9 18.5 75 3.0 S 7 15 4 8 - - 0.0
24/08:30am 21.8 22.5 18.0 79 2.4 SE 11 17 6 9 - - 0.0
24/08:00am 21.4 21.3 17.8 80 2.2 ESE 15 20 8 11 - - 0.0
24/07:30am 21.2 21.2 18.0 82 2.0 E 15 24 8 13 - - 0.0
24/07:00am 21.3 21.6 17.9 81 2.1 E 13 20 7 11 - - 0.0
24/06:30am 20.9 19.1 17.9 83 1.9 ESE 24 33 13 18 - - 0.0
24/06:00am 20.7 19.1 17.5 82 2.0 ESE 22 33 12 18 - - 0.0
24/05:30am 20.7 21.2 18.3 86 1.5 E 13 17 7 9 - - 0.0
24/05:00am 20.7 21.1 18.1 85 1.6 E 13 17 7 9 - - 0.0
24/04:30am 20.8 22.1 18.4 86 1.5 SSE 9 11 5 6 - - 0.0
24/04:00am 20.6 22.4 18.2 86 1.5 S 6 11 3 6 - - 0.0
24/03:30am 20.8 22.5 18.4 86 1.5 SE 7 9 4 5 - - 0.0
24/03:00am 20.9 22.5 18.3 85 1.6 SE 7 11 4 6 - - 0.0
24/02:30am 21.0 22.1 18.0 83 1.9 ESE 9 13 5 7 - - 0.0
24/02:00am 21.6 23.0 18.6 83 1.9 SE 9 13 5 7 - - 0.0
24/01:30am 21.6 23.4 18.4 82 2.0 S 6 11 3 6 - - 0.0
24/01:00am 21.5 23.0 18.1 81 2.1 S 7 17 4 9 - - 0.0
24/12:30am 21.7 23.4 18.5 82 2.0 SSW 7 13 4 7 - - 0.0
24/12:00am 21.6 22.9 18.4 82 2.0 NE 9 11 5 6 - - 0.0
 
Date/Time
EDT
Temp
°C
App
Temp
°C
Dew
Point
Rel
Hum
%
Delta-T
°C
Wind Press
QNH
hPa
Press
MSL
hPa
Rain
since 9 am
mm
Dir
 
Spd
km/h
Gust
km/h
Spd
kts
Gust
kts
23/11:30pm 21.7 23.5 18.7 83 1.9 SSE 7 11 4 6 - - 0.0
23/11:00pm 21.4 23.2 18.8 85 1.6 SSE 7 11 4 6 - - 0.0
23/10:30pm 21.4 21.7 18.8 85 1.6 ESE 15 20 8 11 - - 0.0
23/10:00pm 21.5 20.8 18.7 84 1.8 ESE 20 30 11 16 - - 0.0
23/09:30pm 21.8 21.6 18.6 82 2.0 SE 17 24 9 13 - - 0.0
23/09:00pm 22.0 22.4 19.0 83 1.9 SE 15 22 8 12 - - 0.0
23/08:30pm 22.1 22.1 18.9 82 2.0 SSE 17 28 9 15 - - 0.0
23/08:00pm 22.3 21.6 18.7 80 2.3 S 20 37 11 20 - - 0.0
23/07:30pm 22.3 22.7 18.9 81 2.1 S 15 22 8 12 - - 0.0
23/07:00pm 22.1 20.9 19.3 84 1.8 SSE 24 39 13 21 - - 0.0
23/06:50pm 22.1 20.1 19.1 83 1.9 SSE 28 46 15 25 - - 0.0
23/06:30pm 22.9 20.3 19.5 81 2.2 SE 32 46 17 25 - - 0.0
23/06:00pm 22.7 21.0 19.7 83 1.9 SE 28 39 15 21 - - 0.0
23/05:30pm 24.1 22.1 19.2 74 3.1 SE 28 39 15 21 - - 0.0
23/05:00pm 26.6 25.0 20.0 67 4.3 ESE 28 37 15 20 - - 0.0
23/04:30pm 26.2 26.4 20.1 69 4.0 ESE 19 28 10 15 - - 0.0
23/04:01pm 27.0 24.6 19.1 62 5.1 SE 30 48 16 26 - - 0.0
23/04:00pm 26.9 23.8 18.5 60 5.4 SSE 32 48 17 26 - - 0.0
23/03:56pm 27.8 25.1 17.6 53 6.4 SE 28 48 15 26 - - 0.0
23/03:30pm 33.2 33.9 19.7 45 8.9 ESE 15 22 8 12 - - 0.0
23/03:00pm 31.8 30.8 18.0 43 8.9 NNE 20 28 11 15 - - 0.0
23/02:30pm 31.9 31.3 18.8 45 8.5 ENE 20 28 11 15 - - 0.0
23/02:00pm 32.1 32.4 19.7 48 8.2 ENE 17 22 9 12 - - 0.0
23/01:30pm 32.5 33.2 19.7 46 8.4 E 15 22 8 12 - - 0.0
23/01:00pm 32.7 33.3 20.2 47 8.3 E 17 22 9 12 - - 0.0
23/12:30pm 31.6 32.4 19.9 50 7.7 E 15 20 8 11 - - 0.0
23/12:00pm 29.9 29.8 19.6 54 6.7 SE 19 24 10 13 - - 0.0
23/11:30am 31.4 33.0 20.0 50 7.5 E 11 20 6 11 - - 0.0
23/11:00am 30.2 31.6 17.3 46 8.2 ENE 6 13 3 7 - - 0.0
23/10:30am 29.8 32.5 19.5 54 6.7 ESE 4 9 2 5 - - 0.0
23/10:00am 27.9 31.2 19.1 58 5.7 CALM 0 6 0 3 - - 0.0
23/09:30am 26.0 27.5 17.6 60 5.3 WSW 6 9 3 5 - - 0.0
23/09:00am 25.1 27.2 19.0 69 3.9 WSW 6 13 3 7 - - 0.0
23/08:30am 23.3 24.7 17.7 71 3.5 W 7 13 4 7 - - 0.0
23/08:00am 22.1 23.5 17.7 76 2.7 W 7 11 4 6 - - 0.0
23/07:30am 20.9 22.5 18.3 85 1.6 NNW 7 15 4 8 - - 0.0
23/07:00am 19.5 21.6 18.2 92 0.8 NNE 4 9 2 5 - - 0.0
23/06:30am 18.8 20.7 17.6 93 0.7 N 4 6 2 3 - - 0.0
23/06:15am 18.7 21.3 17.4 92 0.8 CALM 0 0 0 0 - - 0.0
23/06:00am 18.8 20.7 17.6 93 0.7 NW 4 7 2 4 - - 0.0
23/05:43am 18.7 21.3 17.5 93 0.7 CALM 0 0 0 0 - - 0.0
23/05:42am 18.7 21.3 17.5 93 0.7 CALM 0 0 0 0 - - 0.0
23/05:30am 18.7 20.9 17.5 93 0.7 N 2 6 1 3 - - 0.0
23/05:22am 18.7 20.2 17.5 93 0.7 N 6 9 3 5 - - 0.0
23/05:00am 18.4 19.6 17.4 94 0.6 N 7 9 4 5 - - 0.0
23/04:38am 17.6 19.7 16.3 92 0.8 CALM 0 0 0 0 - - 0.0
23/04:30am 18.2 20.7 17.2 94 0.6 CALM 0 6 0 3 - - 0.0
23/04:19am 18.3 19.7 17.3 94 0.6 NW 6 7 3 4 - - 0.0
23/04:00am 18.4 21.0 17.6 95 0.5 CALM 0 0 0 0 - - 0.0
23/03:53am 17.9 20.3 16.9 94 0.6 CALM 0 0 0 0 - - 0.0
23/03:32am 18.1 20.5 16.9 93 0.7 CALM 0 0 0 0 - - 0.0
23/03:30am 18.0 20.4 16.9 93 0.7 CALM 0 0 0 0 - - 0.0
23/03:00am 18.3 20.7 17.1 93 0.7 CALM 0 0 0 0 - - 0.0
23/02:30am 18.4 20.9 17.2 93 0.7 CALM 0 0 0 0 - - 0.0
23/02:26am 18.3 20.7 17.1 93 0.7 CALM 0 0 0 0 - - 0.0
23/02:12am 18.7 21.3 17.5 93 0.7 CALM 0 0 0 0 - - 0.0
23/02:00am 18.8 21.4 17.5 92 0.8 CALM 0 0 0 0 - - 0.0
23/01:30am 18.9 21.4 17.2 90 1.0 CALM 0 0 0 0 - - 0.0
23/01:00am 19.3 21.8 17.3 88 1.2 CALM 0 0 0 0 - - 0.0
23/12:30am 19.9 21.0 17.9 88 1.2 N 9 13 5 7 - - 0.0
23/12:00am 20.1 22.0 17.7 86 1.5 WNW 4 7 2 4 - - 0.0
 
Date/Time
EDT
Temp
°C
App
Temp
°C
Dew
Point
Rel
Hum
%
Delta-T
°C
Wind Press
QNH
hPa
Press
MSL
hPa
Rain
since 9 am
mm
Dir
 
Spd
km/h
Gust
km/h
Spd
kts
Gust
kts
22/11:30pm 20.2 21.5 17.6 85 1.6 N 7 9 4 5 - - 0.0
22/11:00pm 20.3 21.6 17.5 84 1.7 N 7 9 4 5 - - 0.0
22/10:30pm 20.2 21.6 17.4 84 1.7 N 6 7 3 4 - - 0.0
22/10:00pm 20.5 21.8 17.5 83 1.8 NNE 7 11 4 6 - - 0.0
22/09:30pm 20.6 21.6 17.8 84 1.7 NNE 9 13 5 7 - - 0.0
22/09:00pm 20.5 21.1 17.7 84 1.7 NE 11 15 6 8 - - 0.0
22/08:30pm 20.4 21.6 17.4 83 1.8 NE 7 11 4 6 - - 0.0
22/08:00pm 20.5 20.8 17.1 81 2.1 NE 11 17 6 9 - - 0.0
22/07:30pm 20.6 20.1 17.0 80 2.2 NE 15 22 8 12 - - 0.0
22/07:00pm 21.2 20.7 17.0 77 2.6 NE 15 20 8 11 - - 0.0
22/06:30pm 21.6 20.6 16.6 73 3.0 E 17 24 9 13 - - 0.0
22/06:00pm 21.9 20.5 16.6 72 3.2 E 19 24 10 13 - - 0.0
22/05:30pm 23.1 21.6 16.2 65 4.2 E 19 24 10 13 - - 0.0
22/05:00pm 23.3 21.8 16.4 65 4.2 ESE 19 22 10 12 - - 0.0
22/04:30pm 23.7 22.2 15.2 59 5.1 ESE 17 26 9 14 - - 0.0
22/04:00pm 24.2 22.1 15.1 56 5.4 E 20 26 11 14 - - 0.0
22/03:30pm 24.3 22.2 15.2 57 5.5 ESE 20 28 11 15 - - 0.0
22/03:00pm 25.3 23.4 15.3 54 6.0 E 19 26 10 14 - - 0.0
22/02:30pm 25.3 23.3 15.0 53 6.2 ESE 19 28 10 15 - - 0.0
22/02:00pm 25.2 22.5 15.5 55 5.9 ESE 24 32 13 17 - - 0.0
22/01:30pm 25.6 23.7 15.3 53 6.2 ESE 19 26 10 14 - - 0.0
22/01:00pm 25.6 23.4 15.0 52 6.4 ESE 20 30 11 16 - - 0.0
22/12:30pm 26.0 25.5 14.8 50 6.7 ESE 11 20 6 11 - - 0.0
22/12:00pm 25.3 25.4 13.8 49 6.8 SE 6 15 3 8 - - 0.0
22/11:30am 24.0 24.2 14.7 56 5.5 NW 7 15 4 8 - - 0.0
22/11:00am 23.9 23.6 14.3 55 5.7 NNE 9 15 5 8 - - 0.0
22/10:30am 23.2 23.0 13.7 55 5.5 E 7 26 4 14 - - 0.0
22/10:00am 21.9 21.0 12.7 56 5.2 SSE 9 19 5 10 - - 0.0
22/09:30am 21.8 21.4 12.4 55 5.3 ESE 6 15 3 8 - - 0.0
22/09:00am 22.1 22.0 14.0 60 4.7 SE 7 17 4 9 - - 0.0
22/08:30am 21.7 19.2 12.3 55 5.3 E 17 20 9 11 - - 0.0
22/08:00am 20.0 19.5 13.9 68 3.5 SE 9 13 5 7 - - 0.0
22/07:30am 20.1 19.7 14.0 68 3.5 S 9 17 5 9 - - 0.0
22/07:00am 19.4 19.7 14.9 75 2.6 SSE 7 11 4 6 - - 0.0
22/06:30am 18.4 18.7 14.5 78 2.3 SSW 6 9 3 5 - - 0.0
22/06:00am 18.2 18.2 14.1 77 2.3 SSE 7 11 4 6 - - 0.0
22/05:30am 18.3 18.5 14.6 79 2.1 S 7 11 4 6 - - 0.0
22/05:00am 18.4 18.5 14.5 78 2.3 S 7 11 4 6 - - 0.0
22/04:30am 18.6 18.3 14.5 77 2.4 S 9 13 5 7 - - 0.0
22/04:00am 18.8 18.8 15.1 79 2.2 S 9 13 5 7 - - 0.0
22/03:30am 18.9 18.7 14.6 76 2.5 S 9 13 5 7 - - 0.0
22/03:00am 19.2 18.8 15.1 77 2.4 S 11 17 6 9 - - 0.0
22/02:30am 19.7 18.5 15.1 75 2.7 S 15 22 8 12 - - 0.0
22/02:00am 19.7 18.9 15.1 75 2.7 S 13 20 7 11 - - 0.0
22/01:30am 19.8 19.0 15.2 75 2.7 S 13 22 7 12 - - 0.0
22/01:00am 20.0 19.0 15.6 76 2.6 S 15 24 8 13 - - 0.0
22/12:30am 20.0 18.5 15.4 75 2.7 S 17 28 9 15 - - 0.0
22/12:00am 20.1 18.3 15.5 75 2.7 S 19 30 10 16 - - 0.0
 
Date/Time
EDT
Temp
°C
App
Temp
°C
Dew
Point
Rel
Hum
%
Delta-T
°C
Wind Press
QNH
hPa
Press
MSL
hPa
Rain
since 9 am
mm
Dir
 
Spd
km/h
Gust
km/h
Spd
kts
Gust
kts
21/11:30pm 20.2 18.5 15.8 76 2.6 S 19 39 10 21 - - 0.0
21/11:00pm 20.5 18.4 16.3 77 2.5 S 22 37 12 20 - - 0.0
21/10:30pm 20.6 19.2 16.6 78 2.4 SSE 19 35 10 19 - - 0.0
21/10:00pm 20.7 17.7 16.7 78 2.4 SSE 28 43 15 23 - - 0.0
21/09:30pm 20.9 18.5 17.3 80 2.2 S 26 41 14 22 - - 0.0
21/09:07pm 21.1 18.4 17.5 80 2.2 SSE 28 46 15 25 - - 0.0
21/09:00pm 21.1 17.9 17.3 79 2.3 SSE 30 46 16 25 - - 0.0
21/08:31pm 21.6 18.7 17.0 75 2.8 SSE 28 46 15 25 - - 0.0
21/08:30pm 21.6 18.7 17.0 75 2.8 SSE 28 46 15 25 - - 0.0
21/08:00pm 22.0 18.8 16.3 70 3.4 SSE 28 50 15 27 - - 0.0
21/07:57pm 22.1 18.9 16.4 70 3.5 SSE 28 50 15 27 - - 0.0
21/07:30pm 22.5 20.0 16.1 67 3.9 SSE 24 39 13 21 - - 0.0
21/07:00pm 22.9 20.4 17.1 70 3.6 SSE 26 41 14 22 - - 0.0
21/06:47pm 23.1 20.3 17.3 70 3.6 SSE 28 48 15 26 - - 0.0
21/06:30pm 23.7 20.9 18.1 71 3.5 SSE 30 46 16 25 - - 0.0
21/06:07pm 24.5 22.6 19.3 73 3.3 SSE 28 46 15 25 - - 0.0
21/06:06pm 24.4 22.6 19.5 74 3.1 SSE 28 46 15 25 - - 0.0
21/06:00pm 24.9 22.5 19.0 69 3.8 SSE 30 46 16 25 - - 0.0
21/05:51pm 25.6 23.5 19.0 67 4.2 SSE 28 44 15 24 - - 0.0
21/05:30pm 27.4 27.1 19.2 61 5.3 SSE 19 24 10 13 - - 0.0
21/05:00pm 28.2 28.0 19.4 59 5.7 SE 19 26 10 14 - - 0.0
21/04:30pm 28.6 28.5 19.5 58 5.9 SE 19 24 10 13 - - 0.0

Other Formats:

Comma delimited format used in spreadsheet applications
http://www.bom.gov.au/fwo/IDN60801/IDN60801.94766.axf

JavaScript Object Notation format (JSON) in row-major order
http://www.bom.gov.au/fwo/IDN60801/IDN60801.94766.json